Time;durP1;ratioP1;P1;durP2;ratioP2;P2;SDS_P1;SDS_P2;PMS_P1;PMS_P2;Temp;Humidity;BMP_temperature;BMP_pressure;BME280_temperature;BME280_humidity;BME280_pressure;Samples;Min_cycle;Max_cycle;Signal;HPM_P1;HPM_P2
2023/08/24 00:00:25;;;;;;;5.20;5.00;;;;;;;;;;5061289;28;20533;-83
2023/08/24 00:02:51;;;;;;;6.03;5.43;;;;;;;;;;5065406;28;20438;-83
2023/08/24 00:05:17;;;;;;;6.17;5.80;;;;;;;;;;5061624;28;20438;-82
2023/08/24 00:07:43;;;;;;;6.90;6.33;;;;;;;;;;5060404;28;20445;-82
2023/08/24 00:10:09;;;;;;;5.97;5.43;;;;;;;;;;5048133;28;20933;-82
2023/08/24 00:12:36;;;;;;;5.67;5.37;;;;;;;;;;5057042;28;20456;-82
2023/08/24 00:15:02;;;;;;;6.23;5.60;;;;;;;;;;5058342;28;20437;-82
2023/08/24 00:17:29;;;;;;;6.10;5.30;;;;;;;;;;5053122;28;20442;-82
2023/08/24 00:19:58;;;;;;;6.87;6.50;;;;;;;;;;5053427;28;20494;-83
2023/08/24 00:22:24;;;;;;;5.73;5.53;;;;;;;;;;5048697;28;20869;-83
2023/08/24 00:24:50;;;;;;;5.70;5.30;;;;;;;;;;5055835;28;20457;-85
2023/08/24 00:27:16;;;;;;;5.93;5.63;;;;;;;;;;5053908;28;20429;-83
2023/08/24 00:29:42;;;;;;;5.70;5.50;;;;;;;;;;5071556;28;20444;-83
2023/08/24 00:32:08;;;;;;;5.40;5.10;;;;;;;;;;5066833;28;20943;-84
2023/08/24 00:34:34;;;;;;;6.00;5.53;;;;;;;;;;5063278;28;20891;-82
2023/08/24 00:37:00;;;;;;;6.27;5.67;;;;;;;;;;5052289;28;20528;-81
2023/08/24 00:39:27;;;;;;;6.37;5.93;;;;;;;;;;5055575;28;20509;-82
2023/08/24 00:41:52;;;;;;;7.00;5.53;;;;;;;;;;5057549;28;20447;-83
2023/08/24 00:44:18;;;;;;;6.10;5.70;;;;;;;;;;5053425;28;20410;-83
2023/08/24 00:46:44;;;;;;;6.93;5.57;;;;;;;;;;5052126;28;20472;-82
2023/08/24 00:49:10;;;;;;;6.00;5.70;;;;;;;;;;5058757;28;20497;-82
2023/08/24 00:51:36;;;;;;;5.80;5.27;;;;;;;;;;5055331;28;20441;-81
2023/08/24 00:54:02;;;;;;;6.10;5.60;;;;;;;;;;5056563;28;20471;-82
2023/08/24 00:56:29;;;;;;;6.33;5.87;;;;;;;;;;5057088;28;20864;-82
2023/08/24 00:58:56;;;;;;;5.40;5.10;;;;;;;;;;5063776;28;20443;-81
2023/08/24 01:01:24;;;;;;;5.90;5.67;;;;;;;;;;5063416;28;20459;-83
2023/08/24 01:03:50;;;;;;;6.17;5.77;;;;;;;;;;5053773;28;20471;-83
2023/08/24 01:06:16;;;;;;;6.07;5.67;;;;;;;;;;5050259;28;20453;-83
2023/08/24 01:08:42;;;;;;;6.13;5.73;;;;;;;;;;5055465;28;20479;-82
2023/08/24 01:11:08;;;;;;;5.30;5.10;;;;;;;;;;5050675;28;20490;-83
2023/08/24 01:13:47;;;;;;;6.40;6.07;;;;;;;;;;5053627;28;21198;-82
2023/08/24 01:16:17;;;;;;;5.87;5.57;;;;;;;;;;5059170;28;20472;-83
2023/08/24 01:18:44;;;;;;;7.23;5.33;;;;;;;;;;5056250;28;20441;-83
2023/08/24 01:21:10;;;;;;;6.50;6.00;;;;;;;;;;5056240;28;20444;-83
2023/08/24 01:23:49;;;;;;;5.73;5.43;;;;;;;;;;5057436;28;20429;-83
2023/08/24 01:26:18;;;;;;;6.00;5.80;;;;;;;;;;5059895;28;20940;-82
2023/08/24 01:28:44;;;;;;;6.20;5.63;;;;;;;;;;5046902;28;20448;-84
2023/08/24 01:31:10;;;;;;;5.70;5.20;;;;;;;;;;5056328;28;20441;-82
2023/08/24 01:33:37;;;;;;;5.97;5.67;;;;;;;;;;5058117;28;20465;-83
2023/08/24 01:36:03;;;;;;;6.43;6.03;;;;;;;;;;5054420;28;20417;-83
2023/08/24 01:38:29;;;;;;;6.63;6.23;;;;;;;;;;5052602;28;20497;-82
2023/08/24 01:41:07;;;;;;;7.00;5.80;;;;;;;;;;5055932;28;20429;-82
2023/08/24 01:43:35;;;;;;;5.90;5.70;;;;;;;;;;5042214;28;20441;-82
2023/08/24 01:46:03;;;;;;;6.00;5.50;;;;;;;;;;5057223;28;20434;-82
2023/08/24 01:48:30;;;;;;;6.03;5.83;;;;;;;;;;5058955;28;21139;-82
2023/08/24 01:50:56;;;;;;;6.97;5.70;;;;;;;;;;5055920;28;20414;-83
2023/08/24 01:53:22;;;;;;;6.03;5.43;;;;;;;;;;5059763;28;20473;-83
2023/08/24 01:55:48;;;;;;;6.30;5.90;;;;;;;;;;5059589;28;21061;-81
2023/08/24 01:58:15;;;;;;;8.83;5.87;;;;;;;;;;5060020;28;20537;-82
2023/08/24 02:00:41;;;;;;;9.13;6.10;;;;;;;;;;5054124;28;20465;-83
2023/08/24 02:03:07;;;;;;;6.13;5.80;;;;;;;;;;5056978;28;20437;-82
2023/08/24 02:05:33;;;;;;;5.50;5.27;;;;;;;;;;5059260;28;20455;-81
2023/08/24 02:07:59;;;;;;;5.13;4.90;;;;;;;;;;5057316;28;21108;-82
2023/08/24 02:10:26;;;;;;;6.20;5.73;;;;;;;;;;5054803;28;20809;-82
2023/08/24 02:12:52;;;;;;;6.23;5.77;;;;;;;;;;5055165;28;20534;-84
2023/08/24 02:15:18;;;;;;;5.23;5.10;;;;;;;;;;5057008;28;20686;-82
2023/08/24 02:17:44;;;;;;;6.23;5.73;;;;;;;;;;5054316;28;20457;-82
2023/08/24 02:20:11;;;;;;;6.30;6.00;;;;;;;;;;5058502;28;20447;-81
2023/08/24 02:22:37;;;;;;;6.47;6.00;;;;;;;;;;5058421;28;20435;-82
2023/08/24 02:25:04;;;;;;;6.77;6.27;;;;;;;;;;5065432;28;20452;-81
2023/08/24 02:27:31;;;;;;;6.53;5.83;;;;;;;;;;5057352;28;20532;-82
2023/08/24 02:29:57;;;;;;;7.20;5.90;;;;;;;;;;5058050;28;20449;-83
2023/08/24 02:32:23;;;;;;;9.67;5.70;;;;;;;;;;5056879;28;20463;-82
2023/08/24 02:34:49;;;;;;;6.60;6.00;;;;;;;;;;5055461;28;20474;-82
2023/08/24 02:37:15;;;;;;;6.03;5.70;;;;;;;;;;5050596;28;20429;-82
2023/08/24 02:39:41;;;;;;;6.30;5.90;;;;;;;;;;5056689;28;20452;-81
2023/08/24 02:42:06;;;;;;;6.80;6.30;;;;;;;;;;5057923;28;20924;-81
2023/08/24 02:44:32;;;;;;;6.50;6.10;;;;;;;;;;5057158;28;20520;-82
2023/08/24 02:46:58;;;;;;;6.87;6.47;;;;;;;;;;5057204;28;20935;-82
2023/08/24 02:49:24;;;;;;;6.93;6.40;;;;;;;;;;5045557;28;20492;-82
2023/08/24 02:51:50;;;;;;;6.93;6.53;;;;;;;;;;5055638;28;20563;-82
2023/08/24 02:54:16;;;;;;;7.10;6.40;;;;;;;;;;5051245;28;20486;-82
2023/08/24 02:56:42;;;;;;;6.30;5.90;;;;;;;;;;5057405;28;20440;-83
2023/08/24 02:59:08;;;;;;;6.50;5.90;;;;;;;;;;5055123;28;20456;-82
2023/08/24 03:01:38;;;;;;;6.00;5.70;;;;;;;;;;5055465;28;20450;-83
2023/08/24 03:04:04;;;;;;;6.87;6.23;;;;;;;;;;5058025;28;20491;-84
2023/08/24 03:06:31;;;;;;;5.90;5.50;;;;;;;;;;5064440;28;20417;-82
2023/08/24 03:08:57;;;;;;;6.50;6.03;;;;;;;;;;5064012;28;20440;-82
2023/08/24 03:11:23;;;;;;;6.87;6.37;;;;;;;;;;5063862;28;20429;-83
2023/08/24 03:13:49;;;;;;;7.20;6.90;;;;;;;;;;5063921;28;20475;-83
2023/08/24 03:16:15;;;;;;;6.27;5.93;;;;;;;;;;5068282;28;20433;-82
2023/08/24 03:18:41;;;;;;;6.63;6.33;;;;;;;;;;5066223;28;20440;-83
2023/08/24 03:21:07;;;;;;;5.80;5.50;;;;;;;;;;5053670;28;20452;-83
2023/08/24 03:23:33;;;;;;;6.40;5.90;;;;;;;;;;5068672;28;20498;-83
2023/08/24 03:25:59;;;;;;;6.37;5.87;;;;;;;;;;5061328;28;20478;-84
2023/08/24 03:28:25;;;;;;;6.50;6.00;;;;;;;;;;5060346;28;20506;-84
2023/08/24 03:30:52;;;;;;;5.87;5.50;;;;;;;;;;5064023;28;20468;-83
2023/08/24 03:33:19;;;;;;;6.50;6.10;;;;;;;;;;5060482;28;20476;-83
2023/08/24 03:35:45;;;;;;;7.37;6.83;;;;;;;;;;5069407;28;20432;-83
2023/08/24 03:38:11;;;;;;;6.20;5.80;;;;;;;;;;5060116;28;20467;-83
2023/08/24 03:40:37;;;;;;;6.83;6.40;;;;;;;;;;5075157;28;20436;-83
2023/08/24 03:43:03;;;;;;;7.10;6.30;;;;;;;;;;5072256;28;20437;-83
2023/08/24 03:45:29;;;;;;;6.67;6.10;;;;;;;;;;5059495;28;20472;-82
2023/08/24 03:47:55;;;;;;;6.80;6.37;;;;;;;;;;5060141;28;20446;-83
2023/08/24 03:50:22;;;;;;;6.27;5.73;;;;;;;;;;5053731;28;20456;-83
2023/08/24 03:52:48;;;;;;;6.57;6.10;;;;;;;;;;5062476;28;20468;-83
2023/08/24 03:55:14;;;;;;;7.40;6.60;;;;;;;;;;5067383;28;20959;-82
2023/08/24 03:57:40;;;;;;;6.10;5.60;;;;;;;;;;5071009;28;20438;-84
2023/08/24 04:00:10;;;;;;;7.20;6.27;;;;;;;;;;5067216;28;20432;-82
2023/08/24 04:02:36;;;;;;;5.93;5.63;;;;;;;;;;5076831;28;20441;-84
2023/08/24 04:05:02;;;;;;;7.07;6.47;;;;;;;;;;5054664;28;20441;-83
2023/08/24 04:07:28;;;;;;;6.17;5.87;;;;;;;;;;5057917;28;20975;-84
2023/08/24 04:09:54;;;;;;;7.10;6.60;;;;;;;;;;5066845;28;20444;-83
2023/08/24 04:12:20;;;;;;;7.03;6.63;;;;;;;;;;5069466;28;20487;-83
2023/08/24 04:14:47;;;;;;;8.00;7.40;;;;;;;;;;5074555;28;20460;-84
2023/08/24 04:17:13;;;;;;;7.00;6.23;;;;;;;;;;5083253;28;20452;-83
2023/08/24 04:19:39;;;;;;;7.37;6.90;;;;;;;;;;5083780;28;20431;-82
2023/08/24 04:22:05;;;;;;;6.33;6.00;;;;;;;;;;5078919;28;20433;-81
2023/08/24 04:24:31;;;;;;;7.63;7.13;;;;;;;;;;5067383;28;20441;-82
2023/08/24 04:26:57;;;;;;;7.70;7.30;;;;;;;;;;5070545;28;20739;-83
2023/08/24 04:29:23;;;;;;;7.33;6.63;;;;;;;;;;5069412;28;20417;-83
2023/08/24 04:31:49;;;;;;;8.07;7.57;;;;;;;;;;5073670;28;20448;-83
2023/08/24 04:34:15;;;;;;;9.37;7.60;;;;;;;;;;5069168;28;20947;-84
2023/08/24 04:36:41;;;;;;;8.63;7.80;;;;;;;;;;5066072;28;20514;-83
2023/08/24 04:39:07;;;;;;;9.33;8.40;;;;;;;;;;5064534;28;20444;-83
2023/08/24 04:41:33;;;;;;;8.47;7.87;;;;;;;;;;5067360;28;20967;-83
2023/08/24 04:43:59;;;;;;;9.20;8.40;;;;;;;;;;5072347;28;20444;-84
2023/08/24 04:46:26;;;;;;;9.67;8.80;;;;;;;;;;5066516;28;20441;-83
2023/08/24 04:48:52;;;;;;;10.33;8.07;;;;;;;;;;5071405;28;21030;-80
2023/08/24 04:51:18;;;;;;;9.50;8.70;;;;;;;;;;5079694;28;20421;-85
2023/08/24 04:53:44;;;;;;;9.17;8.50;;;;;;;;;;5072695;28;20464;-85
2023/08/24 04:56:10;;;;;;;9.17;8.30;;;;;;;;;;5075470;28;20467;-85
2023/08/24 04:58:36;;;;;;;10.27;9.30;;;;;;;;;;5072236;28;20429;-85
2023/08/24 05:01:02;;;;;;;9.13;8.53;;;;;;;;;;5052654;28;20448;-85
2023/08/24 05:03:28;;;;;;;9.30;8.63;;;;;;;;;;5059679;28;20444;-85
2023/08/24 05:05:54;;;;;;;8.97;8.40;;;;;;;;;;5068351;28;20433;-84
2023/08/24 05:08:20;;;;;;;8.80;8.03;;;;;;;;;;5070832;28;20437;-85
2023/08/24 05:10:46;;;;;;;9.60;9.00;;;;;;;;;;5059401;28;20437;-84
2023/08/24 05:13:12;;;;;;;8.80;8.20;;;;;;;;;;5068827;28;20479;-83
2023/08/24 05:15:38;;;;;;;9.67;8.70;;;;;;;;;;5065459;28;20425;-84
2023/08/24 05:18:04;;;;;;;10.03;8.97;;;;;;;;;;5096348;27;20457;-85
2023/08/24 05:20:30;;;;;;;8.83;8.27;;;;;;;;;;5071604;28;20417;-84
2023/08/24 05:22:56;;;;;;;9.90;9.10;;;;;;;;;;5084952;28;20463;-86
2023/08/24 05:25:23;;;;;;;10.87;9.70;;;;;;;;;;5071383;28;20405;-84
2023/08/24 05:27:49;;;;;;;10.40;9.70;;;;;;;;;;5079273;28;20436;-85
2023/08/24 05:30:15;;;;;;;10.33;9.20;;;;;;;;;;5070297;28;21026;-84
2023/08/24 05:32:41;;;;;;;9.50;8.90;;;;;;;;;;5065015;28;20443;-83
2023/08/24 05:35:08;;;;;;;9.80;9.10;;;;;;;;;;5080683;28;20521;-81
2023/08/24 05:37:34;;;;;;;10.50;9.60;;;;;;;;;;5076950;28;20735;-83
2023/08/24 05:40:01;;;;;;;8.50;8.10;;;;;;;;;;5073749;28;20429;-83
2023/08/24 05:42:27;;;;;;;9.73;9.00;;;;;;;;;;5071238;28;20438;-85
2023/08/24 05:44:53;;;;;;;10.43;9.63;;;;;;;;;;5087681;28;20438;-85
2023/08/24 05:47:19;;;;;;;9.87;9.20;;;;;;;;;;5077742;28;20429;-83
2023/08/24 05:49:45;;;;;;;9.70;8.73;;;;;;;;;;5078901;28;20459;-84
2023/08/24 05:52:11;;;;;;;9.23;8.27;;;;;;;;;;5075731;28;20424;-84
2023/08/24 05:54:37;;;;;;;10.77;10.00;;;;;;;;;;5086672;28;20467;-83
2023/08/24 05:57:04;;;;;;;9.03;8.53;;;;;;;;;;5075506;28;20425;-84
2023/08/24 05:59:30;;;;;;;9.47;8.67;;;;;;;;;;5079526;28;20448;-85
2023/08/24 06:01:56;;;;;;;9.27;8.63;;;;;;;;;;5079311;28;20441;-84
2023/08/24 06:04:22;;;;;;;9.30;8.80;;;;;;;;;;5078225;28;20441;-85
2023/08/24 06:06:48;;;;;;;8.57;7.90;;;;;;;;;;5061004;28;20993;-84
2023/08/24 06:09:17;;;;;;;9.37;8.87;;;;;;;;;;5097476;28;20446;-85
2023/08/24 06:11:43;;;;;;;8.63;8.10;;;;;;;;;;5070009;28;20835;-82
2023/08/24 06:14:09;;;;;;;11.27;8.97;;;;;;;;;;5062154;28;20476;-83
2023/08/24 06:16:35;;;;;;;8.97;8.57;;;;;;;;;;5063315;28;20468;-84
2023/08/24 06:19:01;;;;;;;8.10;7.40;;;;;;;;;;5084813;28;20424;-84
2023/08/24 06:21:27;;;;;;;8.90;8.40;;;;;;;;;;5072654;28;20843;-83
2023/08/24 06:23:53;;;;;;;9.00;8.27;;;;;;;;;;5076279;28;20428;-85
2023/08/24 06:26:19;;;;;;;9.30;8.63;;;;;;;;;;5064936;28;20455;-83
2023/08/24 06:28:45;;;;;;;8.63;7.90;;;;;;;;;;5067378;28;20530;-84
2023/08/24 06:31:11;;;;;;;8.33;7.93;;;;;;;;;;5068647;28;20444;-84
2023/08/24 06:33:38;;;;;;;8.40;7.80;;;;;;;;;;5066630;28;20810;-82
2023/08/24 06:36:05;;;;;;;9.03;8.17;;;;;;;;;;5069347;28;20450;-84
2023/08/24 06:38:31;;;;;;;8.90;8.03;;;;;;;;;;5065251;28;20412;-83
2023/08/24 06:41:00;;;;;;;8.03;7.53;;;;;;;;;;5069489;28;20539;-85
2023/08/24 06:43:27;;;;;;;7.83;7.27;;;;;;;;;;5066426;28;20478;-84
2023/08/24 06:45:53;;;;;;;7.67;7.20;;;;;;;;;;5063252;28;20441;-82
2023/08/24 06:48:19;;;;;;;8.63;8.07;;;;;;;;;;5065467;28;20512;-84
2023/08/24 06:50:45;;;;;;;8.40;7.70;;;;;;;;;;5067200;28;20470;-84
2023/08/24 06:53:11;;;;;;;6.53;6.30;;;;;;;;;;5071587;28;20462;-86
2023/08/24 06:55:37;;;;;;;6.90;6.40;;;;;;;;;;5066406;28;20417;-84
2023/08/24 06:58:06;;;;;;;8.63;6.20;;;;;;;;;;5055207;28;20450;-87
2023/08/24 07:00:33;;;;;;;7.47;6.77;;;;;;;;;;5056590;28;20450;-85
2023/08/24 07:02:59;;;;;;;7.43;6.07;;;;;;;;;;5066046;28;20428;-85
2023/08/24 07:05:25;;;;;;;5.80;5.40;;;;;;;;;;5063142;28;20428;-85
2023/08/24 07:07:51;;;;;;;5.97;5.60;;;;;;;;;;5061325;28;20428;-85
2023/08/24 07:10:20;;;;;;;7.60;5.70;;;;;;;;;;5060051;28;20426;-85
2023/08/24 07:12:46;;;;;;;4.93;4.73;;;;;;;;;;5066216;28;20472;-86
2023/08/24 07:15:13;;;;;;;5.53;5.30;;;;;;;;;;5065887;28;20967;-85
2023/08/24 07:17:39;;;;;;;5.73;5.20;;;;;;;;;;5063717;28;20444;-86
2023/08/24 07:20:06;;;;;;;4.83;4.70;;;;;;;;;;5063991;28;20536;-84
2023/08/24 07:22:32;;;;;;;11.13;4.87;;;;;;;;;;5060644;28;20464;-85
2023/08/24 07:24:58;;;;;;;10.70;5.47;;;;;;;;;;5059489;28;20432;-82
2023/08/24 07:27:24;;;;;;;5.47;5.17;;;;;;;;;;5067964;28;20433;-85
2023/08/24 07:29:50;;;;;;;5.53;5.13;;;;;;;;;;5070926;28;20797;-84
2023/08/24 07:32:16;;;;;;;7.93;7.43;;;;;;;;;;5073255;28;20446;-82
2023/08/24 07:34:42;;;;;;;4.70;4.40;;;;;;;;;;5064383;28;20519;-86
2023/08/24 07:37:08;;;;;;;4.50;4.40;;;;;;;;;;5078817;28;20412;-86
2023/08/24 07:39:34;;;;;;;5.07;4.90;;;;;;;;;;5082706;28;20491;-85
2023/08/24 07:42:00;;;;;;;5.10;4.90;;;;;;;;;;5076792;28;20433;-88
2023/08/24 07:44:27;;;;;;;5.30;4.70;;;;;;;;;;5078152;28;20423;-87
2023/08/24 07:46:53;;;;;;;4.83;4.63;;;;;;;;;;5065759;28;20437;-88
2023/08/24 07:49:19;;;;;;;5.10;4.80;;;;;;;;;;5066226;28;20510;-85
2023/08/24 07:51:47;;;;;;;4.63;4.30;;;;;;;;;;5070005;28;20432;-87
2023/08/24 07:54:13;;;;;;;5.47;5.00;;;;;;;;;;5065539;28;20483;-86
2023/08/24 07:56:39;;;;;;;4.97;4.67;;;;;;;;;;5079390;28;20456;-85
2023/08/24 07:59:05;;;;;;;4.00;3.90;;;;;;;;;;5086454;28;20937;-84
2023/08/24 08:01:31;;;;;;;3.50;3.30;;;;;;;;;;5073674;28;20582;-83
2023/08/24 08:03:57;;;;;;;4.03;3.93;;;;;;;;;;5070159;28;20440;-82
2023/08/24 08:06:24;;;;;;;4.07;3.97;;;;;;;;;;5067710;28;20642;-83
2023/08/24 08:08:51;;;;;;;4.00;3.90;;;;;;;;;;5075700;28;21174;-84
2023/08/24 08:11:17;;;;;;;4.40;3.97;;;;;;;;;;5054979;28;20912;-82
2023/08/24 08:13:43;;;;;;;4.10;3.97;;;;;;;;;;5061319;28;20484;-84
2023/08/24 08:16:09;;;;;;;4.53;4.33;;;;;;;;;;5068259;28;20412;-85
2023/08/24 08:18:36;;;;;;;4.87;4.70;;;;;;;;;;5057452;28;20520;-85
2023/08/24 08:21:09;;;;;;;4.00;3.80;;;;;;;;;;5063838;28;20426;-83
2023/08/24 08:23:35;;;;;;;3.87;3.57;;;;;;;;;;5069445;28;20525;-85
2023/08/24 08:26:01;;;;;;;5.20;4.80;;;;;;;;;;5078326;28;20446;-81
2023/08/24 08:28:27;;;;;;;4.70;4.23;;;;;;;;;;5065215;28;20436;-85
2023/08/24 08:30:53;;;;;;;4.73;3.60;;;;;;;;;;5059256;28;20432;-85
2023/08/24 08:33:21;;;;;;;3.90;3.70;;;;;;;;;;5058017;28;20516;-85
2023/08/24 08:35:47;;;;;;;3.87;3.67;;;;;;;;;;5064952;28;20433;-85
2023/08/24 08:38:13;;;;;;;4.30;4.10;;;;;;;;;;5054610;28;20457;-84
2023/08/24 08:40:41;;;;;;;3.47;3.30;;;;;;;;;;5052335;28;20541;-86
2023/08/24 08:43:07;;;;;;;3.20;3.00;;;;;;;;;;5062001;28;20492;-84
2023/08/24 08:45:33;;;;;;;3.80;2.80;;;;;;;;;;5067376;28;20501;-84
2023/08/24 08:48:03;;;;;;;3.10;3.00;;;;;;;;;;5055703;28;20459;-86
2023/08/24 08:50:29;;;;;;;3.50;2.60;;;;;;;;;;5052636;28;20922;-85
2023/08/24 08:52:58;;;;;;;3.00;2.70;;;;;;;;;;5060285;28;20505;-83
2023/08/24 08:55:25;;;;;;;3.43;3.20;;;;;;;;;;5055317;28;20490;-84
2023/08/24 08:57:53;;;;;;;2.87;2.60;;;;;;;;;;5061116;28;20436;-83
2023/08/24 09:00:20;;;;;;;2.93;2.73;;;;;;;;;;5059974;28;20436;-84
2023/08/24 09:02:46;;;;;;;2.97;2.97;;;;;;;;;;5056780;28;20417;-82
2023/08/24 09:05:13;;;;;;;2.73;2.70;;;;;;;;;;5054727;28;20433;-83
2023/08/24 09:07:42;;;;;;;3.13;2.93;;;;;;;;;;5054481;28;20985;-83
2023/08/24 09:10:09;;;;;;;2.90;2.70;;;;;;;;;;5054365;28;20723;-84
2023/08/24 09:12:35;;;;;;;4.20;3.80;;;;;;;;;;5066238;28;20814;-84
2023/08/24 09:15:07;;;;;;;3.77;3.50;;;;;;;;;;5054806;28;20456;-84
2023/08/24 09:17:34;;;;;;;7.97;3.50;;;;;;;;;;5052650;28;20966;-84
2023/08/24 09:20:01;;;;;;;3.70;2.90;;;;;;;;;;5055527;28;20430;-78
2023/08/24 09:22:27;;;;;;;4.13;3.80;;;;;;;;;;5056707;28;20439;-81
2023/08/24 09:24:54;;;;;;;3.23;3.13;;;;;;;;;;5064285;28;20591;-80
2023/08/24 09:27:21;;;;;;;3.10;3.07;;;;;;;;;;5057264;28;20445;-80
2023/08/24 09:29:56;;;;;;;3.10;3.00;;;;;;;;;;5053753;28;20460;-82
2023/08/24 09:32:27;;;;;;;3.60;3.17;;;;;;;;;;5046852;28;20443;-81
2023/08/24 09:34:54;;;;;;;3.50;3.40;;;;;;;;;;5053185;28;21049;-82
2023/08/24 09:37:20;;;;;;;3.30;3.10;;;;;;;;;;5057225;28;20520;-81
2023/08/24 09:39:46;;;;;;;3.93;3.73;;;;;;;;;;5057319;28;20948;-82
2023/08/24 09:42:13;;;;;;;3.57;3.47;;;;;;;;;;5059331;28;20482;-82
2023/08/24 09:44:45;;;;;;;3.30;3.30;;;;;;;;;;5060317;28;20516;-82
2023/08/24 09:47:11;;;;;;;14.00;4.63;;;;;;;;;;5058624;28;20432;-83
2023/08/24 09:49:37;;;;;;;3.60;3.30;;;;;;;;;;5059645;28;20596;-82
2023/08/24 09:52:06;;;;;;;3.33;3.23;;;;;;;;;;5053519;28;20457;-82
2023/08/24 09:54:34;;;;;;;3.03;2.87;;;;;;;;;;5053141;28;20551;-82
2023/08/24 09:57:01;;;;;;;3.20;3.03;;;;;;;;;;5067785;28;20543;-84
2023/08/24 09:59:27;;;;;;;5.97;5.57;;;;;;;;;;5069017;28;20456;-83
2023/08/24 10:01:56;;;;;;;3.80;3.60;;;;;;;;;;5060259;28;20448;-82
2023/08/24 10:04:23;;;;;;;3.47;3.43;;;;;;;;;;5075405;28;20440;-81
2023/08/24 10:06:50;;;;;;;3.43;3.20;;;;;;;;;;5066690;28;20466;-83
2023/08/24 10:09:22;;;;;;;4.20;3.13;;;;;;;;;;5064552;28;20428;-83
2023/08/24 10:11:55;;;;;;;3.50;3.33;;;;;;;;;;5055434;28;20437;-84
2023/08/24 10:14:25;;;;;;;18.97;17.40;;;;;;;;;;5049290;28;20532;-81
2023/08/24 10:16:52;;;;;;;11.83;11.10;;;;;;;;;;5059163;28;20452;-82
2023/08/24 10:19:18;;;;;;;3.77;3.67;;;;;;;;;;5057985;28;20451;-82
2023/08/24 10:21:45;;;;;;;3.70;3.60;;;;;;;;;;5070271;28;20950;-81
2023/08/24 10:24:11;;;;;;;3.00;2.77;;;;;;;;;;5059666;28;20433;-82
2023/08/24 10:26:40;;;;;;;3.27;3.17;;;;;;;;;;5061393;28;20540;-81
2023/08/24 10:29:07;;;;;;;3.20;3.20;;;;;;;;;;5059128;28;20491;-83
2023/08/24 10:31:34;;;;;;;3.70;3.50;;;;;;;;;;5062152;28;20489;-82
2023/08/24 10:34:00;;;;;;;3.97;3.20;;;;;;;;;;5058986;28;20468;-82
2023/08/24 10:36:26;;;;;;;3.77;3.57;;;;;;;;;;5065560;28;20467;-83
2023/08/24 10:38:57;;;;;;;3.87;3.67;;;;;;;;;;5057548;28;20436;-83
2023/08/24 10:41:26;;;;;;;3.50;3.30;;;;;;;;;;5059027;28;20520;-86
2023/08/24 10:43:52;;;;;;;3.27;3.07;;;;;;;;;;5059066;28;20440;-83
2023/08/24 10:46:18;;;;;;;3.20;3.10;;;;;;;;;;5053069;28;20448;-85
2023/08/24 10:48:44;;;;;;;5.57;5.17;;;;;;;;;;5077150;28;20439;-85
2023/08/24 10:51:18;;;;;;;2.93;2.93;;;;;;;;;;5072518;28;20474;-83
2023/08/24 10:53:45;;;;;;;3.93;3.40;;;;;;;;;;5071660;28;20471;-81
2023/08/24 10:56:16;;;;;;;3.23;3.03;;;;;;;;;;5061133;28;20471;-84
2023/08/24 10:58:43;;;;;;;4.93;3.40;;;;;;;;;;5065016;28;20454;-83
2023/08/24 11:01:16;;;;;;;3.47;3.27;;;;;;;;;;5065412;28;21145;-81
2023/08/24 11:03:46;;;;;;;3.30;3.00;;;;;;;;;;5046569;28;20478;-84
2023/08/24 11:06:22;;;;;;;2.97;2.87;;;;;;;;;;5051983;28;20438;-84
2023/08/24 11:08:49;;;;;;;3.40;3.17;;;;;;;;;;5056523;28;20436;-85
2023/08/24 11:11:21;;;;;;;2.70;2.70;;;;;;;;;;5053019;28;20479;-81
2023/08/24 11:14:06;;;;;;;3.10;3.00;;;;;;;;;;5062015;28;20473;-83
2023/08/24 11:16:42;;;;;;;3.60;3.50;;;;;;;;;;5061675;28;20472;-84
2023/08/24 11:19:09;;;;;;;2.80;2.80;;;;;;;;;;5075429;28;20914;-83
2023/08/24 11:21:35;;;;;;;2.87;2.77;;;;;;;;;;5067665;28;21008;-83
2023/08/24 11:24:02;;;;;;;3.47;3.37;;;;;;;;;;5074119;28;20421;-82
2023/08/24 11:26:30;;;;;;;3.70;3.40;;;;;;;;;;5084491;28;21055;-83
2023/08/24 11:28:57;;;;;;;3.90;3.60;;;;;;;;;;5068100;28;20437;-81
2023/08/24 11:31:27;;;;;;;4.40;4.10;;;;;;;;;;5064894;28;20464;-82
2023/08/24 11:33:56;;;;;;;3.20;3.03;;;;;;;;;;5073584;28;20484;-83
2023/08/24 11:36:25;;;;;;;3.63;3.33;;;;;;;;;;5079175;28;20497;-83
2023/08/24 11:38:56;;;;;;;3.10;3.10;;;;;;;;;;5079011;28;20467;-83
2023/08/24 11:41:22;;;;;;;4.17;3.77;;;;;;;;;;5077383;28;20488;-83
2023/08/24 11:43:50;;;;;;;6.97;4.47;;;;;;;;;;5078407;28;20425;-84
2023/08/24 11:46:17;;;;;;;4.50;4.10;;;;;;;;;;5068146;28;20463;-83
2023/08/24 11:48:44;;;;;;;3.70;3.50;;;;;;;;;;5069844;28;20425;-82
2023/08/24 11:51:12;;;;;;;3.60;3.50;;;;;;;;;;5070748;28;20498;-84
2023/08/24 11:53:39;;;;;;;3.30;3.17;;;;;;;;;;5066416;28;20535;-81
2023/08/24 11:56:05;;;;;;;4.30;4.10;;;;;;;;;;5067225;28;20539;-83
2023/08/24 11:58:31;;;;;;;4.80;4.13;;;;;;;;;;5061975;28;20485;-83
2023/08/24 12:00:58;;;;;;;3.63;3.53;;;;;;;;;;5066184;28;20455;-83
2023/08/24 12:03:24;;;;;;;3.80;3.70;;;;;;;;;;5064834;28;20840;-83
2023/08/24 12:05:50;;;;;;;3.70;3.60;;;;;;;;;;5081368;28;20463;-83
2023/08/24 12:08:16;;;;;;;4.00;3.80;;;;;;;;;;5066765;28;20401;-83
2023/08/24 12:10:46;;;;;;;4.40;4.10;;;;;;;;;;5073397;28;20560;-82
2023/08/24 12:13:12;;;;;;;4.07;3.97;;;;;;;;;;5072670;28;20478;-84
2023/08/24 12:15:38;;;;;;;4.50;4.40;;;;;;;;;;5072593;28;20444;-84
2023/08/24 12:18:11;;;;;;;4.00;3.80;;;;;;;;;;5060448;28;20432;-83
2023/08/24 12:20:37;;;;;;;4.03;3.73;;;;;;;;;;5068749;28;21113;-82
2023/08/24 12:23:03;;;;;;;3.97;3.80;;;;;;;;;;5066540;28;20947;-83
2023/08/24 12:25:29;;;;;;;4.20;4.10;;;;;;;;;;5070160;28;20437;-82
2023/08/24 12:28:10;;;;;;;4.00;3.80;;;;;;;;;;5068810;28;20421;-83
2023/08/24 12:30:46;;;;;;;4.20;3.80;;;;;;;;;;5068806;28;20519;-82
2023/08/24 12:33:25;;;;;;;3.90;3.60;;;;;;;;;;5061438;28;20643;-84
2023/08/24 12:35:52;;;;;;;4.57;4.27;;;;;;;;;;5078955;28;20936;-84
2023/08/24 12:38:18;;;;;;;4.50;4.30;;;;;;;;;;5064424;28;20397;-83
2023/08/24 12:40:44;;;;;;;4.47;4.27;;;;;;;;;;5063103;28;20497;-86
2023/08/24 12:43:10;;;;;;;4.70;4.50;;;;;;;;;;5062482;28;20441;-85
2023/08/24 12:45:37;;;;;;;4.60;4.30;;;;;;;;;;5056032;28;20440;-86
2023/08/24 12:48:03;;;;;;;5.20;5.00;;;;;;;;;;5058613;28;20449;-85
2023/08/24 12:50:29;;;;;;;6.10;5.20;;;;;;;;;;5067744;28;20428;-86
2023/08/24 12:52:59;;;;;;;4.80;4.50;;;;;;;;;;5062373;28;20424;-85
2023/08/24 12:55:25;;;;;;;5.23;4.93;;;;;;;;;;5060449;28;20931;-82
2023/08/24 12:57:52;;;;;;;4.50;4.40;;;;;;;;;;5051108;28;20450;-80
2023/08/24 13:00:18;;;;;;;5.27;4.70;;;;;;;;;;5056982;28;20401;-81
2023/08/24 13:02:44;;;;;;;5.77;5.23;;;;;;;;;;5069390;28;20547;-81
2023/08/24 13:05:10;;;;;;;4.43;4.13;;;;;;;;;;5064338;28;20801;-80
2023/08/24 13:07:37;;;;;;;4.93;4.60;;;;;;;;;;5065944;28;20435;-80
2023/08/24 13:10:04;;;;;;;4.53;4.33;;;;;;;;;;5059428;28;20448;-80
2023/08/24 13:12:30;;;;;;;3.93;3.73;;;;;;;;;;5066561;28;20480;-78
2023/08/24 13:14:56;;;;;;;4.60;4.10;;;;;;;;;;5059085;28;20550;-81
2023/08/24 13:17:22;;;;;;;5.33;5.03;;;;;;;;;;5064030;28;21187;-81
2023/08/24 13:19:49;;;;;;;4.50;4.40;;;;;;;;;;5064295;28;20505;-83
2023/08/24 13:22:15;;;;;;;4.73;4.50;;;;;;;;;;5079578;28;20431;-82
2023/08/24 13:24:42;;;;;;;4.60;4.40;;;;;;;;;;5064946;28;20838;-82
2023/08/24 13:27:10;;;;;;;4.63;4.20;;;;;;;;;;5055416;28;20479;-81
2023/08/24 13:29:36;;;;;;;5.00;4.70;;;;;;;;;;5074586;28;20409;-82
2023/08/24 13:32:03;;;;;;;8.50;4.80;;;;;;;;;;5065691;28;20867;-82
2023/08/24 13:34:29;;;;;;;4.63;4.40;;;;;;;;;;5059815;28;20464;-83
2023/08/24 13:36:54;;;;;;;5.07;4.67;;;;;;;;;;5055458;28;20994;-81
2023/08/24 13:39:20;;;;;;;9.50;5.10;;;;;;;;;;5067243;28;20754;-82
2023/08/24 13:41:46;;;;;;;4.93;4.60;;;;;;;;;;5067784;28;20425;-80
2023/08/24 13:44:13;;;;;;;5.13;4.70;;;;;;;;;;5066857;28;20530;-81
2023/08/24 13:46:39;;;;;;;5.13;4.30;;;;;;;;;;5062512;28;20450;-83
2023/08/24 13:49:05;;;;;;;4.07;3.97;;;;;;;;;;5059003;28;20452;-81
2023/08/24 13:51:31;;;;;;;6.73;4.07;;;;;;;;;;5064416;28;20425;-84
2023/08/24 13:53:57;;;;;;;5.10;4.67;;;;;;;;;;5063600;28;20515;-83
2023/08/24 13:56:23;;;;;;;9.73;4.00;;;;;;;;;;5070724;28;20416;-82
2023/08/24 13:58:49;;;;;;;4.87;4.47;;;;;;;;;;5064577;28;20442;-82
2023/08/24 14:01:15;;;;;;;7.30;5.07;;;;;;;;;;5074162;28;20444;-83
2023/08/24 14:03:43;;;;;;;4.70;4.40;;;;;;;;;;5078495;28;20439;-81
2023/08/24 14:06:10;;;;;;;4.27;4.03;;;;;;;;;;5065860;28;20440;-82
2023/08/24 14:08:36;;;;;;;5.37;5.07;;;;;;;;;;5065656;28;20517;-81
2023/08/24 14:11:03;;;;;;;4.73;4.63;;;;;;;;;;5067749;28;20482;-82
2023/08/24 14:13:30;;;;;;;5.23;4.83;;;;;;;;;;5066325;28;21283;-82
2023/08/24 14:15:56;;;;;;;5.17;4.87;;;;;;;;;;5069423;28;20824;-81
2023/08/24 14:18:22;;;;;;;5.90;5.57;;;;;;;;;;5066303;28;20448;-82
2023/08/24 14:20:49;;;;;;;6.20;5.70;;;;;;;;;;5070793;28;20440;-83
2023/08/24 14:23:15;;;;;;;5.00;4.70;;;;;;;;;;5073287;28;20460;-87
2023/08/24 14:25:41;;;;;;;5.87;5.10;;;;;;;;;;5081239;28;20454;-87
2023/08/24 14:28:07;;;;;;;4.97;4.70;;;;;;;;;;5065442;28;20460;-85
2023/08/24 14:30:33;;;;;;;5.30;4.90;;;;;;;;;;5073519;28;20928;-80
2023/08/24 14:32:59;;;;;;;8.33;5.27;;;;;;;;;;5066384;28;20470;-83
2023/08/24 14:35:25;;;;;;;5.40;5.10;;;;;;;;;;5064051;28;20467;-82
2023/08/24 14:37:51;;;;;;;5.77;5.47;;;;;;;;;;5066452;28;21014;-83
2023/08/24 14:40:19;;;;;;;9.70;5.90;;;;;;;;;;5069463;28;20436;-80